De Leon Springs, FL

10:36 PM EST on December 21, 2014 (GMT -0500)
RAWS LAKE WOODRUFF QD FL US | Change Station
CLOSE
Current Station
Personal Weather Station
Location: Deland, FL
Elevation: 9 ft
Nearby Weather Stations

Elev 9 ft 29.10 °N, 81.37 °W | Updated 208 days ago

Thunderstorm
Thunderstorm
64 °F
Feels Like 64 °F
N
1
Wind Variable Wind from SE
Gusts mph

Today
High -- | Low -- °F
--% Chance of Precip.
Yesterday
High -- | Low -- °F
Precip. -- in
7:15 AM 5:32 PM
New Moon, 0% visible
Pressure 30.06 in
Visibility 2.5 miles
Clouds Overcast 11000 ft
Dew Point 63 °F
Humidity 93%
Rainfall 0.00 in
Snow Depth Not available.
UV 0 out of 12
Pollen 5.20 out of 12
Air Quality Not available.
Flu Activity Not available.
METAR KDAB 220253Z 00000KT 2 1/2SM RA BR OVC110 19/19 A3006 RMK AO2 SLP177 P0015 60024 T01940189 50005

More Conditions Fewer Conditions

Pressure 30.06 in
Visibility 2.5 miles
Clouds Overcast 11000 ft
Dew Point 63 °F
Humidity 93%
Rainfall 0.00 in
Snow Depth Not available.
UV 0 out of 12
Pollen 5.20 out of 12
Air Quality Not available.
Flu Activity Not available.
METAR KDAB 220253Z 00000KT 2 1/2SM RA BR OVC110 19/19 A3006 RMK AO2 SLP177 P0015 60024 T01940189 50005

More Conditions Fewer Conditions

10-Day Weather Forecast

Almanac

Astronomy

Dec. 21, 2014 Rise Set
Actual Time
Civil Twilight
Nautical Twilight
Astronomical Twilight
Moon
Length of Visible Light
Length of Day
Tomorrow will be .
, % of the Moon is Illuminated

Today's Extremes

State Highs State Lows

Community

WunderPhotos

Upload Photos

1,779,531 photos uploaded!

WunderBlogs® & News

Nearby

Air Quality

  Air Quality AQ Index Pollutant
Not available.

Snow Depth

Station Depth Elevation

Earthquake Activity

City Distance Mag. Time & Date
Minimum magnitude displayed is 2.5.

Coastal Water Temperatures

Place Temperature

Nearby Weather Stations